createdAt,value
2022-11-22T00:01:43.857Z,99808.06
2022-11-22T00:05:45.449Z,99794.19
2022-11-22T00:09:46.892Z,99787.94
2022-11-22T00:13:48.355Z,99784.66
2022-11-22T00:17:49.934Z,99777.78
2022-11-22T00:21:51.627Z,99763.66
2022-11-22T00:25:53.064Z,99771.84
2022-11-22T00:29:54.593Z,99759.31
2022-11-22T00:33:56.188Z,99761.22
2022-11-22T00:37:57.661Z,99768.44
2022-11-22T00:41:59.216Z,99765.47
2022-11-22T00:46:01.324Z,99772.69
2022-11-22T00:50:03.872Z,99760.06
2022-11-22T00:54:05.531Z,99758.00
2022-11-22T00:58:06.975Z,99758.09
2022-11-22T01:02:08.559Z,99742.19
2022-11-22T01:06:10.053Z,99745.31
2022-11-22T01:10:11.954Z,99741.25
2022-11-22T01:14:14.275Z,99740.34
2022-11-22T01:18:15.753Z,99748.50
2022-11-22T01:22:17.205Z,99746.81
2022-11-22T01:26:18.890Z,99743.81
2022-11-22T01:30:20.427Z,99752.75
2022-11-22T01:34:21.928Z,99747.22
2022-11-22T01:38:23.378Z,99748.56
2022-11-22T01:42:42.128Z,99760.06
2022-11-22T01:46:43.651Z,99749.00
2022-11-22T01:50:49.301Z,99755.53
2022-11-22T01:55:12.779Z,99752.88
2022-11-22T01:59:18.875Z,99748.78
2022-11-22T02:03:21.976Z,99736.69
2022-11-22T02:07:36.514Z,99730.91
2022-11-22T02:11:43.250Z,99738.81
2022-11-22T02:15:44.671Z,99739.09
2022-11-22T02:19:48.629Z,99731.34
2022-11-22T02:24:24.427Z,99721.31
2022-11-22T02:28:29.969Z,99722.63
2022-11-22T02:32:31.747Z,99715.97
2022-11-22T02:36:37.621Z,99708.63
2022-11-22T02:41:05.027Z,99696.16
2022-11-22T02:45:06.967Z,99703.78
2022-11-22T02:49:08.464Z,99706.13
2022-11-22T02:53:11.594Z,99702.31
2022-11-22T02:57:13.632Z,99699.91
2022-11-22T03:01:15.174Z,99688.84
2022-11-22T03:05:16.941Z,99695.59
2022-11-22T03:09:18.490Z,99688.63
2022-11-22T03:13:19.935Z,99684.38
2022-11-22T03:17:21.468Z,99679.38
2022-11-22T03:21:22.920Z,99687.59
2022-11-22T03:25:25.968Z,99683.81
2022-11-22T03:29:27.519Z,99699.09
2022-11-22T03:33:29.098Z,99696.31
2022-11-22T03:37:30.645Z,99676.31
2022-11-22T03:41:32.162Z,99670.81
2022-11-22T03:45:33.671Z,99672.66
2022-11-22T03:49:35.171Z,99674.25
2022-11-22T03:53:37.679Z,99671.91
2022-11-22T03:57:39.157Z,99678.31
2022-11-22T04:01:40.755Z,99671.50
2022-11-22T04:05:42.292Z,99662.69
2022-11-22T04:09:43.732Z,99659.09
2022-11-22T04:14:03.676Z,99659.09
2022-11-22T04:18:05.311Z,99661.06
2022-11-22T04:22:06.792Z,99664.00
2022-11-22T04:26:08.270Z,99672.94
2022-11-22T04:30:10.205Z,99679.59
2022-11-22T04:34:11.829Z,99671.88
2022-11-22T04:38:14.397Z,99669.03
2022-11-22T04:42:34.598Z,99669.41
2022-11-22T04:46:36.081Z,99671.09
2022-11-22T04:50:56.890Z,99661.47
2022-11-22T04:54:58.359Z,99651.44
2022-11-22T04:58:59.829Z,99664.91
2022-11-22T05:03:01.878Z,99667.09
2022-11-22T05:07:03.524Z,99653.81
2022-11-22T05:11:05.002Z,99653.81
2022-11-22T05:15:07.044Z,99656.56
2022-11-22T05:19:08.541Z,99650.56
2022-11-22T05:23:28.687Z,99662.94
2022-11-22T05:27:30.136Z,99656.94
2022-11-22T05:31:33.885Z,99656.81
2022-11-22T05:35:35.396Z,99651.09
2022-11-22T05:39:36.848Z,99649.16
2022-11-22T05:43:38.897Z,99659.25
2022-11-22T05:47:40.489Z,99654.22
2022-11-22T05:51:41.963Z,99659.94
2022-11-22T05:55:43.431Z,99664.19
2022-11-22T05:59:44.882Z,99672.72
2022-11-22T06:03:46.646Z,99677.38
2022-11-22T06:07:48.098Z,99681.78
2022-11-22T06:11:49.622Z,99688.00
2022-11-22T06:15:51.032Z,99684.28
2022-11-22T06:19:52.510Z,99688.94
2022-11-22T06:23:55.138Z,99674.75
2022-11-22T06:27:59.585Z,99695.16
2022-11-22T06:32:03.842Z,99690.44
2022-11-22T06:36:11.252Z,99695.28
2022-11-22T06:40:13.172Z,99692.44
2022-11-22T06:44:14.623Z,99698.50
2022-11-22T06:48:16.061Z,99700.03
2022-11-22T06:52:17.620Z,99705.13
2022-11-22T06:56:20.643Z,99714.09
2022-11-22T07:00:22.289Z,99702.53
2022-11-22T07:04:23.782Z,99713.31
2022-11-22T07:08:25.313Z,99708.56
2022-11-22T07:12:26.792Z,99719.94
2022-11-22T07:16:28.219Z,99725.09
2022-11-22T07:20:29.686Z,99723.75
2022-11-22T07:24:31.118Z,99730.31
2022-11-22T07:28:32.780Z,99732.91
2022-11-22T07:32:34.192Z,99736.88
2022-11-22T07:36:35.662Z,99731.72
2022-11-22T07:40:37.200Z,99739.97
2022-11-22T07:44:38.802Z,99708.66
2022-11-22T07:48:40.259Z,99709.75
2022-11-22T07:52:41.787Z,99699.91
2022-11-22T07:56:43.253Z,99690.66
2022-11-22T08:00:44.917Z,99686.50
2022-11-22T08:04:46.381Z,99681.56
2022-11-22T08:08:47.813Z,99672.31
2022-11-22T08:12:49.307Z,99680.53
2022-11-22T08:16:50.781Z,99686.38
2022-11-22T08:20:52.228Z,99677.53
2022-11-22T08:24:53.718Z,99670.97
2022-11-22T08:28:55.175Z,99672.28
2022-11-22T08:32:56.929Z,99670.56
2022-11-22T08:36:58.371Z,99667.84
2022-11-22T08:40:59.952Z,99682.00
2022-11-22T08:45:01.389Z,99692.97
2022-11-22T08:49:06.254Z,99695.63
2022-11-22T08:53:07.743Z,99705.38
2022-11-22T08:57:09.178Z,99708.47
2022-11-22T09:01:15.623Z,99715.22
2022-11-22T09:05:17.143Z,99731.34
2022-11-22T09:13:40.793Z,99742.28
2022-11-22T09:17:43.565Z,99729.38
2022-11-22T09:21:45.021Z,99744.00
2022-11-22T09:25:46.444Z,99738.22
2022-11-22T09:29:47.869Z,99735.00
2022-11-22T09:33:50.345Z,99729.91
2022-11-22T09:37:51.792Z,99737.16
2022-11-22T09:42:21.005Z,99744.41
2022-11-22T09:46:31.919Z,99744.59
2022-11-22T09:50:57.087Z,99738.22
2022-11-22T09:55:24.995Z,99744.25
2022-11-22T09:59:31.938Z,99757.66
2022-11-22T10:03:48.576Z,99754.16
2022-11-22T10:07:58.994Z,99750.22
2022-11-22T10:12:15.256Z,99756.31
2022-11-22T10:16:20.718Z,99742.59
2022-11-22T10:20:29.094Z,99747.28
2022-11-22T10:24:31.077Z,99747.75
2022-11-22T10:28:36.046Z,99735.31
2022-11-22T10:33:17.061Z,99757.59
2022-11-22T10:37:25.177Z,99744.38
2022-11-22T10:41:52.686Z,99756.53
2022-11-22T10:46:08.434Z,99746.44
2022-11-22T10:50:28.528Z,99740.59
2022-11-22T10:55:10.633Z,99735.44
2022-11-22T11:00:09.152Z,99748.47
2022-11-22T11:04:15.136Z,99760.00
2022-11-22T11:08:47.762Z,99751.22
2022-11-22T11:13:02.819Z,99745.59
2022-11-22T11:17:06.225Z,99729.94
2022-11-22T11:21:07.993Z,99730.91
2022-11-22T11:25:33.717Z,99720.63
2022-11-22T11:29:41.572Z,99725.16
2022-11-22T11:33:43.182Z,99717.00
2022-11-22T11:37:44.625Z,99714.91
2022-11-22T11:41:47.225Z,99714.09
2022-11-22T11:45:49.452Z,99704.16
2022-11-22T11:49:52.176Z,99726.47
2022-11-22T11:54:01.921Z,99724.72
2022-11-22T11:58:22.819Z,99722.47
2022-11-22T12:02:35.044Z,99730.47
2022-11-22T12:06:36.573Z,99721.16
2022-11-22T12:10:49.688Z,99717.34
2022-11-22T12:15:11.137Z,99726.00
2022-11-22T12:19:24.526Z,99715.72
2022-11-22T12:23:26.472Z,99717.97
2022-11-22T12:27:28.019Z,99717.19
2022-11-22T12:31:36.452Z,99690.50
2022-11-22T12:35:43.957Z,99692.75
2022-11-22T12:39:48.354Z,99701.13
2022-11-22T12:44:18.518Z,99706.28
2022-11-22T12:48:33.176Z,99711.88
2022-11-22T12:52:34.522Z,99709.31
2022-11-22T12:56:56.321Z,99708.34
2022-11-22T13:01:05.823Z,99700.63
2022-11-22T13:05:23.659Z,99698.22
2022-11-22T13:09:35.932Z,99692.94
2022-11-22T13:13:41.373Z,99693.72
2022-11-22T13:17:43.240Z,99675.91
2022-11-22T13:22:12.980Z,99670.59
2022-11-22T13:26:47.302Z,99678.31
2022-11-22T13:31:09.987Z,99692.75
2022-11-22T13:35:11.721Z,99700.94
2022-11-22T13:39:18.783Z,99702.72
2022-11-22T13:43:22.632Z,99704.00
2022-11-22T13:47:24.380Z,99691.47
2022-11-22T13:51:56.185Z,99690.34
2022-11-22T13:56:18.754Z,99685.22
2022-11-22T14:00:21.648Z,99673.47
2022-11-22T14:04:26.812Z,99686.31
2022-11-22T14:08:35.753Z,99691.09
2022-11-22T14:12:53.024Z,99692.06
2022-11-22T14:17:22.238Z,99692.00
2022-11-22T14:21:56.199Z,99693.19
2022-11-22T14:26:21.574Z,99688.22
2022-11-22T14:30:38.965Z,99689.38
2022-11-22T14:35:17.612Z,99692.25
2022-11-22T14:39:56.189Z,99697.38
2022-11-22T14:44:27.856Z,99704.00
2022-11-22T14:48:37.572Z,99709.13
2022-11-22T14:52:39.323Z,99699.81
2022-11-22T14:56:43.240Z,99710.72
2022-11-22T15:00:50.535Z,99705.44
2022-11-22T15:09:10.289Z,99700.78
2022-11-22T15:09:53.112Z,99696.78
2022-11-22T15:14:21.253Z,99708.19
2022-11-22T15:58:32.077Z,99744.78
2022-11-22T16:02:49.085Z,99746.56
2022-11-22T16:06:52.116Z,99737.56
2022-11-22T16:10:53.767Z,99734.50
2022-11-22T16:14:56.253Z,99718.44
2022-11-22T16:19:27.152Z,99729.06
2022-11-22T16:23:31.725Z,99726.63
2022-11-22T16:27:33.260Z,99729.06
2022-11-22T16:31:34.723Z,99740.47
2022-11-22T16:35:36.330Z,99746.09
2022-11-22T16:39:37.769Z,99756.03
2022-11-22T16:43:39.218Z,99774.38
2022-11-22T16:47:40.710Z,99774.69
2022-11-22T16:51:46.421Z,99768.25
2022-11-22T16:55:48.134Z,99766.81
2022-11-22T16:59:49.606Z,99777.41
2022-11-22T17:03:56.616Z,99773.53
2022-11-22T17:07:58.085Z,99774.66
2022-11-22T17:11:59.583Z,99780.94
2022-11-22T17:16:01.209Z,99778.84
2022-11-22T17:20:02.896Z,99787.53
2022-11-22T17:24:13.346Z,99786.06
2022-11-22T17:28:14.879Z,99786.06
2022-11-22T17:32:16.298Z,99783.03
2022-11-22T17:36:30.273Z,99794.09
2022-11-22T17:40:31.929Z,99802.44
2022-11-22T17:44:34.056Z,99807.44
2022-11-22T17:48:35.614Z,99806.66
2022-11-22T17:52:37.060Z,99803.25
2022-11-22T17:56:38.749Z,99806.81
2022-11-22T18:00:40.176Z,99815.78
2022-11-22T18:04:42.584Z,99820.44
2022-11-22T18:08:47.225Z,99838.13
2022-11-22T18:13:05.929Z,99837.97
2022-11-22T18:17:10.437Z,99839.25
2022-11-22T18:21:17.165Z,99838.28
2022-11-22T18:25:18.957Z,99829.47
2022-11-22T18:29:41.793Z,99835.72
2022-11-22T18:33:41.781Z,99841.81
2022-11-22T18:37:43.835Z,99840.34
2022-11-22T18:41:47.384Z,99850.81
2022-11-22T18:45:48.813Z,99843.25
2022-11-22T18:49:50.764Z,99848.69
2022-11-22T18:53:52.223Z,99847.28
2022-11-22T18:57:53.703Z,99836.19
2022-11-22T19:01:55.551Z,99841.34
2022-11-22T19:05:57.021Z,99839.41
2022-11-22T19:09:59.172Z,99848.88
2022-11-22T19:14:01.122Z,99848.69
2022-11-22T19:18:02.584Z,99857.72
2022-11-22T19:22:07.126Z,99860.44
2022-11-22T19:26:11.082Z,99876.81
2022-11-22T19:30:13.317Z,99878.13
2022-11-22T19:34:14.929Z,99883.53
2022-11-22T19:38:16.326Z,99883.69
2022-11-22T19:42:17.829Z,99886.13
2022-11-22T19:46:19.917Z,99883.72
2022-11-22T19:50:22.684Z,99873.44
2022-11-22T19:54:25.795Z,99876.69
2022-11-22T19:58:27.298Z,99881.19
2022-11-22T20:02:31.319Z,99880.38
2022-11-22T20:06:34.856Z,99876.34
2022-11-22T20:10:38.279Z,99880.72
2022-11-22T20:14:39.858Z,99874.09
2022-11-22T20:18:41.818Z,99881.81
2022-11-22T20:22:43.281Z,99886.69
2022-11-22T20:26:44.739Z,99878.97
2022-11-22T20:30:46.166Z,99877.03
2022-11-22T20:34:47.632Z,99877.00
2022-11-22T20:38:50.007Z,99885.34
2022-11-22T20:42:51.425Z,99876.38
2022-11-22T20:46:53.001Z,99873.63
2022-11-22T20:50:54.780Z,99878.78
2022-11-22T20:55:00.322Z,99886.16
2022-11-22T20:59:05.347Z,99885.34
2022-11-22T21:03:08.074Z,99884.53
2022-11-22T21:07:09.627Z,99885.53
2022-11-22T21:11:19.079Z,99881.03
2022-11-22T21:15:20.504Z,99885.84
2022-11-22T21:19:21.926Z,99894.38
2022-11-22T21:23:23.341Z,99878.25
2022-11-22T21:27:24.796Z,99878.59
2022-11-22T21:31:27.066Z,99881.47
2022-11-22T21:35:28.506Z,99884.53
2022-11-22T21:39:29.913Z,99881.91
2022-11-22T21:43:31.493Z,99882.06
2022-11-22T21:47:32.987Z,99891.06
2022-11-22T21:51:34.473Z,99881.25
2022-11-22T21:55:36.620Z,99894.75
2022-11-22T21:59:38.042Z,99899.53
2022-11-22T22:03:40.236Z,99891.28
2022-11-22T22:07:52.737Z,99894.34
2022-11-22T22:11:54.464Z,99898.69
2022-11-22T22:16:00.903Z,99894.47
2022-11-22T22:20:02.323Z,99886.66
2022-11-22T22:24:04.007Z,99894.91
2022-11-22T22:28:05.435Z,99906.41
2022-11-22T22:32:10.545Z,99913.31
2022-11-22T22:36:12.494Z,99911.28
2022-11-22T22:40:14.384Z,99910.28
2022-11-22T22:44:15.834Z,99904.13
2022-11-22T22:48:18.569Z,99907.06
2022-11-22T22:52:19.985Z,99913.16
2022-11-22T22:56:22.596Z,99908.25
2022-11-22T23:00:24.011Z,99927.03
2022-11-22T23:04:25.837Z,99917.59
2022-11-22T23:08:27.270Z,99914.19
2022-11-22T23:12:28.668Z,99907.19
2022-11-22T23:16:30.102Z,99911.09
2022-11-22T23:20:31.498Z,99918.06
2022-11-22T23:24:33.263Z,99911.91
2022-11-22T23:28:35.011Z,99904.34
2022-11-22T23:32:36.429Z,99898.91
2022-11-22T23:36:40.994Z,99905.97
2022-11-22T23:40:42.799Z,99920.09
2022-11-22T23:44:44.225Z,99920.56
2022-11-22T23:48:47.384Z,99917.25
2022-11-22T23:52:55.209Z,99917.69
2022-11-22T23:56:56.618Z,99905.78
